Time;durP1;ratioP1;P1;durP2;ratioP2;P2;SDS_P1;SDS_P2;PMS_P1;PMS_P2;Temp;Humidity;BMP_temperature;BMP_pressure;BME280_temperature;BME280_humidity;BME280_pressure;Samples;Min_cycle;Max_cycle;Signal;HPM_P1;HPM_P2
2022/12/30 00:00:51;;;;;;;6.82;3.05;;;9.90;97.50;;;8.55;100.00;100367.31;4987625;28;20050;-74
2022/12/30 00:03:18;;;;;;;6.85;2.40;;;9.70;97.40;;;8.48;100.00;100374.38;4969820;28;20522;-74
2022/12/30 00:05:45;;;;;;;5.10;2.60;;;9.70;97.40;;;8.49;100.00;100379.56;4988559;28;20061;-74
2022/12/30 00:10:59;;;;;;;5.13;2.95;;;9.60;97.40;;;8.46;100.00;100392.75;4969847;28;20050;-74
2022/12/30 00:34:38;;;;;;;5.70;2.63;;;9.40;97.50;;;8.21;100.00;100410.59;4971018;28;20070;-74
2022/12/30 00:37:05;;;;;;;8.98;3.25;;;9.30;97.60;;;8.14;100.00;100403.69;4988513;28;20575;-73
2022/12/30 00:39:32;;;;;;;6.30;3.17;;;9.30;97.60;;;8.02;100.00;100412.56;4988700;28;20070;-73
2022/12/30 00:44:46;;;;;;;5.40;1.98;;;9.20;97.70;;;7.88;100.00;100423.22;4979236;28;20043;-73
2022/12/30 00:47:14;;;;;;;8.50;2.90;;;9.80;97.90;;;7.83;100.00;100418.03;4969168;28;20057;-73
2022/12/30 00:58:00;;;;;;;7.72;2.80;;;8.90;98.00;;;7.55;100.00;100420.09;4987775;28;20097;-73
2022/12/30 01:00:27;;;;;;;6.45;2.65;;;8.90;98.10;;;7.57;100.00;100413.97;4943859;28;20058;-74
2022/12/30 01:02:54;;;;;;;6.00;2.83;;;8.80;98.20;;;7.61;100.00;100415.69;5003937;28;20070;-74
2022/12/30 01:05:22;;;;;;;6.47;2.28;;;8.90;98.10;;;7.55;100.00;100410.50;4971226;28;20046;-73
2022/12/30 01:07:50;;;;;;;8.32;2.30;;;8.80;98.10;;;7.51;100.00;100420.16;4987262;28;20041;-74
2022/12/30 01:10:17;;;;;;;7.60;2.72;;;8.70;98.20;;;7.50;100.00;100417.53;4989334;28;20594;-73
2022/12/30 01:12:44;;;;;;;6.63;2.58;;;8.70;98.20;;;7.45;100.00;100414.09;4987501;28;20042;-74
2022/12/30 01:15:12;;;;;;;7.13;2.42;;;9.80;98.50;;;7.47;100.00;100428.03;4972436;28;20578;-74
2022/12/30 01:17:39;;;;;;;6.90;2.78;;;8.70;98.20;;;7.40;100.00;100422.00;4967187;28;20051;-74
2022/12/30 01:20:08;;;;;;;5.28;2.15;;;8.70;98.20;;;7.34;100.00;100425.53;4970964;28;20104;-74
2022/12/30 01:22:35;;;;;;;7.50;2.45;;;8.60;98.30;;;7.33;100.00;100426.44;4987406;28;20057;-73
2022/12/30 01:25:02;;;;;;;7.63;2.38;;;9.40;98.50;;;7.30;100.00;100430.81;4987619;28;20105;-74
2022/12/30 01:27:32;;;;;;;9.75;2.45;;;8.60;98.30;;;7.22;100.00;100433.50;4988795;28;20110;-74
2022/12/30 01:30:00;;;;;;;5.53;2.85;;;8.50;98.40;;;7.36;100.00;100420.31;5003922;28;20046;-74
2022/12/30 01:32:30;;;;;;;7.60;2.80;;;8.50;98.40;;;7.35;100.00;100429.03;5003635;28;20050;-74
2022/12/30 01:34:57;;;;;;;8.73;2.55;;;8.50;98.30;;;7.29;100.00;100429.09;4971401;28;20057;-73
2022/12/30 01:37:25;;;;;;;4.72;2.63;;;8.50;98.30;;;7.19;100.00;100430.91;4987370;28;20050;-73
2022/12/30 01:39:52;;;;;;;6.70;2.42;;;8.50;98.30;;;7.18;100.00;100437.03;4987291;28;20465;-73
2022/12/30 01:42:24;;;;;;;8.68;2.03;;;8.50;98.40;;;7.15;100.00;100434.44;4987379;28;20807;-73
2022/12/30 01:44:57;;;;;;;6.78;2.45;;;8.40;98.50;;;7.21;100.00;100450.09;4987116;28;20050;-74
2022/12/30 01:47:43;;;;;;;4.47;2.10;;;8.40;98.50;;;7.14;100.00;100456.28;4987221;28;20823;-74
2022/12/30 01:50:11;;;;;;;6.68;2.80;;;8.40;98.60;;;7.01;100.00;100466.81;4988147;28;20486;-74
2022/12/30 01:52:48;;;;;;;6.28;2.50;;;8.40;98.70;;;6.99;100.00;100467.72;4970878;28;20396;-73
2022/12/30 01:55:23;;;;;;;3.28;2.08;;;9.40;99.00;;;7.02;100.00;100475.53;4986686;28;20081;-74
2022/12/30 01:57:52;;;;;;;6.20;2.47;;;8.30;98.80;;;7.06;100.00;100480.72;4952131;28;20055;-74
2022/12/30 02:00:19;;;;;;;6.50;2.38;;;8.90;99.10;;;6.97;100.00;100486.06;4967166;28;20055;-74
2022/12/30 02:02:48;;;;;;;5.85;2.60;;;8.30;99.00;;;6.92;100.00;100500.88;4983882;28;20527;-74
2022/12/30 02:05:20;;;;;;;6.35;2.63;;;8.40;99.00;;;6.89;100.00;100500.91;4967420;28;20046;-74
2022/12/30 02:07:56;;;;;;;6.53;2.45;;;8.20;99.00;;;6.81;100.00;100496.63;4983301;28;20101;-74
2022/12/30 02:10:24;;;;;;;5.28;2.45;;;8.20;99.00;;;6.88;100.00;100501.78;4951252;28;20662;-74
2022/12/30 02:12:52;;;;;;;4.88;2.42;;;8.10;99.00;;;6.87;100.00;100492.22;5001720;28;20042;-73
2022/12/30 02:15:20;;;;;;;5.00;2.45;;;8.10;99.10;;;6.76;100.00;100492.28;4970648;28;20049;-74
2022/12/30 02:18:43;;;;;;;8.32;2.70;;;8.10;99.10;;;6.78;100.00;100486.16;4970798;28;20048;-74
2022/12/30 02:21:34;;;;;;;8.38;2.60;;;8.10;99.00;;;6.57;100.00;100492.41;4985253;28;20050;-74
2022/12/30 02:24:32;;;;;;;7.00;2.20;;;8.00;99.00;;;6.49;100.00;100499.41;4988272;28;20046;-74
2022/12/30 02:27:27;;;;;;;8.30;2.58;;;7.90;98.80;;;6.43;100.00;100499.44;4988269;28;20053;-74
2022/12/30 02:30:06;;;;;;;5.47;2.85;;;7.80;98.80;;;6.31;100.00;100496.00;4987578;28;20042;-73
2022/12/30 02:32:46;;;;;;;6.15;3.35;;;7.80;98.80;;;6.21;100.00;100503.03;5002324;28;20130;-74
2022/12/30 02:35:40;;;;;;;7.15;3.08;;;7.70;98.90;;;6.20;100.00;100514.34;5002612;28;20046;-74
2022/12/30 02:38:45;;;;;;;9.57;3.05;;;7.60;99.10;;;6.31;100.00;100511.69;5002230;28;20050;-74
2022/12/30 02:44:36;;;;;;;8.68;2.90;;;7.70;99.40;;;6.31;100.00;100501.22;4986988;28;20160;-76
2022/12/30 02:47:24;;;;;;;;;;;7.60;99.30;;;6.28;100.00;100510.81;4986251;28;20662;-76
2022/12/30 02:52:47;;;;;;;6.90;2.85;;;7.70;99.30;;;6.37;100.00;100524.72;4986306;28;20509;-74
2022/12/30 02:55:16;;;;;;;9.85;2.83;;;7.70;99.30;;;6.24;100.00;100529.13;4986138;28;20070;-74
2022/12/30 02:57:44;;;;;;;3.53;2.13;;;7.70;99.20;;;6.28;100.00;100529.13;4983286;28;20050;-74
2022/12/30 03:03:59;;;;;;;6.55;2.78;;;7.60;99.10;;;5.94;100.00;100530.94;4994541;28;20066;-74
2022/12/30 03:06:56;;;;;;;5.95;2.75;;;7.50;98.80;;;5.81;100.00;100542.25;4964574;28;20057;-74
2022/12/30 03:13:09;;;;;;;8.05;3.20;;;7.30;98.80;;;5.59;100.00;100530.97;4989386;28;20050;-74
2022/12/30 03:16:14;;;;;;;7.60;3.70;;;7.20;98.80;;;5.52;100.00;100527.50;4985767;28;20414;-74
2022/12/30 03:18:43;;;;;;;11.32;5.13;;;7.10;98.90;;;5.46;100.00;100522.28;4970085;28;20050;-73
2022/12/30 03:21:11;;;;;;;8.80;4.05;;;7.00;98.80;;;5.45;100.00;100520.56;4985791;28;20466;-74
2022/12/30 03:29:20;;;;;;;11.38;3.25;;;6.90;99.00;;;5.36;100.00;100521.44;4966122;28;20051;-74
2022/12/30 03:31:48;;;;;;;7.18;2.50;;;6.80;99.00;;;5.33;100.00;100518.81;4965930;28;20070;-74
2022/12/30 03:34:15;;;;;;;6.50;3.75;;;6.80;98.90;;;5.26;100.00;100520.56;4984572;28;20062;-74
2022/12/30 03:36:47;;;;;;;4.05;1.92;;;6.70;98.90;;;5.28;100.00;100515.31;4985271;28;20073;-76
2022/12/30 03:39:28;;;;;;;8.10;2.75;;;6.70;99.00;;;5.17;100.00;100507.50;4985296;28;20046;-76
2022/12/30 03:41:56;;;;;;;3.08;2.20;;;6.70;98.90;;;5.16;100.00;100508.38;4969833;28;20074;-76
2022/12/30 03:44:24;;;;;;;6.07;3.17;;;7.90;99.20;;;4.97;100.00;100510.97;4985342;28;20062;-76
2022/12/30 03:46:51;;;;;;;4.70;2.90;;;6.60;98.60;;;4.79;100.00;100517.88;5001608;28;20050;-76
2022/12/30 03:49:18;;;;;;;3.88;2.17;;;6.50;98.50;;;4.73;100.00;100517.00;4969177;28;20043;-75
2022/12/30 03:51:47;;;;;;;4.80;2.20;;;6.40;98.60;;;4.72;100.00;100526.53;4984911;28;20057;-75
2022/12/30 03:54:14;;;;;;;4.25;2.20;;;6.50;98.90;;;4.79;100.00;100522.22;4985060;28;20081;-76
2022/12/30 03:56:41;;;;;;;5.13;2.40;;;6.30;99.10;;;4.81;100.00;100529.19;4968902;28;20058;-74
2022/12/30 03:59:08;;;;;;;7.75;2.60;;;6.30;99.40;;;4.88;100.00;100526.59;5000817;28;20054;-74
2022/12/30 04:01:35;;;;;;;6.70;2.67;;;6.30;99.20;;;4.85;100.00;100526.59;4969030;28;20149;-74
2022/12/30 04:04:03;;;;;;;6.22;2.28;;;6.30;99.00;;;4.77;100.00;100526.56;4984920;28;20073;-74
2022/12/30 04:06:30;;;;;;;4.70;2.40;;;6.30;98.90;;;4.77;100.00;100521.34;4985046;28;20585;-74
2022/12/30 04:08:57;;;;;;;3.03;2.38;;;6.40;99.00;;;4.87;100.00;100536.16;4985334;28;20076;-74
2022/12/30 04:11:24;;;;;;;4.07;2.75;;;6.30;99.00;;;4.75;100.00;100520.47;4969753;28;20143;-74
2022/12/30 04:13:51;;;;;;;5.10;2.63;;;6.30;98.90;;;4.78;100.00;100529.19;4974051;28;20039;-74
2022/12/30 04:16:19;;;;;;;4.18;2.22;;;6.30;99.00;;;4.73;100.00;100527.44;4953593;28;20454;-76
2022/12/30 04:18:47;;;;;;;5.03;2.13;;;6.30;98.90;;;4.60;100.00;100521.28;4985140;28;20104;-76
2022/12/30 04:21:14;;;;;;;3.78;2.53;;;6.20;98.90;;;4.59;100.00;100516.94;5001060;28;20050;-76
2022/12/30 04:23:41;;;;;;;4.07;2.22;;;6.20;98.90;;;4.59;100.00;100514.34;5000991;28;20074;-76
2022/12/30 04:26:11;;;;;;;3.60;2.25;;;6.10;98.90;;;4.60;100.00;100505.66;4984787;28;20132;-76
2022/12/30 04:28:38;;;;;;;4.28;2.35;;;6.20;99.20;;;4.51;100.00;100496.97;5000974;28;20074;-76
2022/12/30 04:31:06;;;;;;;3.90;2.17;;;6.10;99.10;;;4.53;100.00;100491.75;5000883;28;20046;-76
2022/12/30 04:33:33;;;;;;;8.10;2.78;;;6.10;99.30;;;4.68;100.00;100496.13;4986709;28;20031;-75
2022/12/30 04:36:00;;;;;;;4.75;2.30;;;6.10;99.90;;;4.74;100.00;100493.53;4968764;28;20109;-75
2022/12/30 04:38:28;;;;;;;6.72;2.25;;;6.10;99.90;;;4.74;100.00;100488.31;4984796;28;20122;-76
2022/12/30 04:40:55;;;;;;;4.88;2.67;;;6.20;99.90;;;4.77;100.00;100493.56;4969056;28;20038;-76
2022/12/30 04:43:22;;;;;;;5.47;2.50;;;6.20;99.90;;;4.89;100.00;100491.81;4971253;28;20577;-76
2022/12/30 04:45:49;;;;;;;5.88;3.10;;;6.30;99.90;;;4.97;100.00;100487.50;4973228;28;20513;-75
2022/12/30 04:48:16;;;;;;;5.22;3.55;;;6.30;99.90;;;4.99;100.00;100487.47;4989243;28;20116;-75
2022/12/30 04:50:45;;;;;;;5.55;3.47;;;7.00;99.90;;;5.01;100.00;100488.38;4972519;28;20054;-75
2022/12/30 04:53:12;;;;;;;4.60;3.10;;;6.40;99.90;;;5.05;100.00;100483.13;4988205;28;20568;-76
2022/12/30 04:55:39;;;;;;;7.88;3.40;;;6.40;99.90;;;4.91;100.00;100482.25;4952753;28;20083;-76
2022/12/30 04:58:06;;;;;;;5.78;2.83;;;6.40;99.90;;;4.91;100.00;100487.47;4964050;28;20058;-75
2022/12/30 05:00:34;;;;;;;4.80;2.80;;;6.40;99.90;;;4.87;100.00;100494.44;4988727;28;20058;-75
2022/12/30 05:03:03;;;;;;;4.13;3.00;;;6.40;99.90;;;4.91;100.00;100503.13;5003924;28;20057;-76
2022/12/30 05:05:30;;;;;;;5.38;2.70;;;6.40;99.90;;;4.78;100.00;100512.66;4987969;28;20133;-75
2022/12/30 05:07:57;;;;;;;3.97;2.60;;;6.30;99.90;;;4.83;100.00;100504.00;5003979;28;20046;-76
2022/12/30 05:10:24;;;;;;;4.95;2.42;;;6.30;99.90;;;4.58;100.00;100510.00;4971664;28;20054;-76
2022/12/30 05:12:53;;;;;;;4.10;3.00;;;6.30;99.60;;;4.20;100.00;100499.47;4987430;28;20042;-76
2022/12/30 05:15:20;;;;;;;3.42;2.40;;;6.10;98.90;;;4.17;100.00;100509.88;5003595;28;20050;-76
2022/12/30 05:17:47;;;;;;;7.65;3.58;;;5.90;99.10;;;4.14;100.00;100507.25;4988684;28;20694;-79
2022/12/30 05:20:14;;;;;;;4.75;2.75;;;5.80;99.10;;;4.16;100.00;100521.16;4988878;28;20057;-76
2022/12/30 05:22:41;;;;;;;8.23;3.00;;;5.80;99.30;;;4.12;100.00;100524.56;4989078;28;20054;-75
2022/12/30 05:27:55;;;;;;;3.60;2.53;;;7.20;99.50;;;3.97;100.00;100525.38;4988962;28;20462;-76
2022/12/30 05:30:23;;;;;;;3.75;2.60;;;5.60;99.40;;;4.07;100.00;100531.50;4987441;28;20050;-76
2022/12/30 05:32:50;;;;;;;4.35;2.35;;;5.60;99.50;;;4.06;100.00;100530.66;4971555;28;20066;-76
2022/12/30 05:35:18;;;;;;;2.78;2.13;;;5.60;99.60;;;4.03;100.00;100530.59;4987747;28;20054;-76
2022/12/30 05:37:45;;;;;;;3.33;2.22;;;5.50;99.60;;;3.97;100.00;100531.44;4987168;28;20058;-76
2022/12/30 05:40:12;;;;;;;2.88;2.00;;;5.50;99.80;;;3.90;100.00;100539.19;4971241;28;20061;-76
2022/12/30 05:42:39;;;;;;;4.13;2.30;;;5.50;99.80;;;3.89;100.00;100535.75;4971130;28;20062;-76
2022/12/30 05:45:07;;;;;;;3.97;2.33;;;5.50;99.80;;;3.81;100.00;100534.81;4986935;28;20137;-76
2022/12/30 05:47:34;;;;;;;3.15;2.22;;;5.50;99.80;;;3.83;100.00;100535.72;4988241;28;20708;-76
2022/12/30 05:50:02;;;;;;;5.30;2.13;;;6.90;99.90;;;3.67;100.00;100540.81;4970786;28;20050;-75
2022/12/30 05:52:29;;;;;;;3.15;2.28;;;6.80;99.70;;;3.68;100.00;100534.75;4986849;28;20038;-76
2022/12/30 05:54:57;;;;;;;3.28;2.08;;;5.30;99.40;;;3.62;100.00;100547.69;4986899;28;20499;-76
2022/12/30 05:57:24;;;;;;;3.00;2.13;;;5.30;99.50;;;3.75;100.00;100545.19;4983822;28;20050;-76
2022/12/30 05:59:51;;;;;;;3.80;2.30;;;5.30;99.50;;;3.80;100.00;100538.28;5000097;28;20770;-76
2022/12/30 06:02:18;;;;;;;14.07;9.70;;;5.30;99.40;;;3.80;100.00;100538.28;5003555;28;20065;-76
2022/12/30 06:04:45;;;;;;;26.75;16.38;;;5.20;99.30;;;3.69;100.00;100530.41;5003239;28;20510;-76
2022/12/30 06:07:12;;;;;;;11.05;7.78;;;6.10;99.50;;;3.53;100.00;100527.69;4986759;28;20061;-76
2022/12/30 06:09:39;;;;;;;9.07;5.25;;;6.30;99.80;;;3.54;100.00;100536.38;4970106;28;20160;-76
2022/12/30 06:12:07;;;;;;;5.35;4.00;;;5.20;99.30;;;3.43;100.00;100535.41;4970640;28;20114;-76
2022/12/30 06:14:34;;;;;;;5.15;3.83;;;5.30;99.10;;;3.42;100.00;100551.88;4970160;28;20050;-76
2022/12/30 06:17:01;;;;;;;6.65;4.80;;;5.10;99.00;;;3.29;100.00;100556.97;4986386;28;20819;-76
2022/12/30 06:19:28;;;;;;;9.20;4.68;;;5.00;99.00;;;3.51;100.00;100549.34;4986540;28;20042;-75
2022/12/30 06:21:55;;;;;;;6.55;3.78;;;5.10;99.10;;;3.36;100.00;100551.00;5001773;28;20105;-76
2022/12/30 06:24:22;;;;;;;7.97;4.63;;;5.00;99.20;;;3.36;100.00;100544.91;4982880;28;20139;-75
2022/12/30 06:26:49;;;;;;;5.28;3.72;;;5.00;99.10;;;3.36;100.00;100535.38;4969161;28;20046;-75
2022/12/30 06:29:18;;;;;;;7.05;3.83;;;6.90;99.50;;;3.36;100.00;100540.59;4968435;28;20061;-76
2022/12/30 06:31:45;;;;;;;6.88;4.45;;;4.90;99.20;;;3.39;100.00;100538.00;4935589;28;20051;-76
2022/12/30 06:34:12;;;;;;;7.63;4.47;;;5.00;99.30;;;3.40;100.00;100544.06;4950931;28;20101;-76
2022/12/30 06:36:39;;;;;;;7.78;5.43;;;5.00;99.30;;;3.48;100.00;100544.13;4967227;28;20062;-75
2022/12/30 06:39:07;;;;;;;6.95;5.15;;;5.00;99.40;;;3.55;100.00;100545.94;4935141;28;20050;-75
2022/12/30 06:41:34;;;;;;;7.78;5.03;;;5.00;99.40;;;3.59;100.00;100545.09;4966853;28;20046;-76
2022/12/30 06:44:01;;;;;;;6.70;5.57;;;5.00;99.40;;;3.61;100.00;100538.16;4983805;28;20050;-76
2022/12/30 06:46:28;;;;;;;6.63;5.43;;;5.10;99.50;;;3.58;100.00;100540.75;5002630;28;20042;-76
2022/12/30 06:48:55;;;;;;;6.70;5.30;;;5.10;99.70;;;3.73;100.00;100544.31;4969572;28;20064;-76
2022/12/30 06:51:22;;;;;;;8.35;5.00;;;6.10;99.80;;;3.75;100.00;100545.19;4969598;28;20553;-75
2022/12/30 06:53:49;;;;;;;5.53;4.10;;;5.20;99.40;;;3.73;100.00;100537.38;4985517;28;20096;-76
2022/12/30 06:56:16;;;;;;;4.90;4.20;;;5.90;99.50;;;3.76;100.00;100545.22;4969775;28;20050;-75
2022/12/30 06:58:43;;;;;;;5.53;4.47;;;5.30;99.50;;;3.76;100.00;100544.34;4952789;28;20074;-76
2022/12/30 07:01:10;;;;;;;7.28;5.10;;;5.30;99.40;;;3.86;100.00;100547.88;4901231;28;20503;-75
2022/12/30 07:03:38;;;;;;;4.18;3.78;;;5.30;99.40;;;3.88;100.00;100547.03;4980370;28;20104;-77
2022/12/30 07:06:06;;;;;;;6.18;4.53;;;5.40;99.50;;;3.83;100.00;100546.13;4985378;28;20042;-75
2022/12/30 07:08:33;;;;;;;3.95;3.20;;;5.30;99.30;;;3.71;100.00;100536.47;4966611;28;20058;-75
2022/12/30 07:11:01;;;;;;;7.28;3.80;;;5.30;99.10;;;3.68;100.00;100537.34;4968707;28;20063;-75
2022/12/30 07:13:29;;;;;;;6.00;4.18;;;5.20;99.20;;;3.64;100.00;100535.56;5000316;28;20081;-74
2022/12/30 07:15:56;;;;;;;4.03;3.60;;;5.20;99.20;;;3.53;100.00;100532.91;4984384;28;20058;-75
2022/12/30 07:18:23;;;;;;;5.57;4.35;;;5.20;99.10;;;3.42;100.00;100531.94;4984702;28;20049;-75
2022/12/30 07:20:50;;;;;;;7.00;3.55;;;5.10;99.10;;;3.39;100.00;100526.72;4985497;28;20529;-75
2022/12/30 07:23:17;;;;;;;4.53;3.17;;;5.00;99.10;;;3.52;100.00;100535.50;4983169;28;20053;-75
2022/12/30 07:25:47;;;;;;;7.32;3.70;;;5.00;99.10;;;3.44;100.00;100531.97;4968203;28;20134;-75
2022/12/30 07:28:14;;;;;;;4.13;2.80;;;5.00;99.20;;;3.26;100.00;100526.59;4984044;28;20092;-75
2022/12/30 07:30:41;;;;;;;3.60;2.60;;;4.90;99.10;;;3.38;100.00;100525.84;4984760;28;20039;-75
2022/12/30 07:33:09;;;;;;;3.67;2.22;;;4.90;99.20;;;3.35;100.00;100531.00;4985127;28;20049;-75
2022/12/30 07:35:36;;;;;;;5.70;2.90;;;5.00;99.10;;;3.30;100.00;100526.66;4986487;28;20125;-75
2022/12/30 07:38:04;;;;;;;5.22;2.65;;;4.90;99.10;;;3.34;100.00;100533.63;4952864;28;20061;-75
2022/12/30 07:40:31;;;;;;;5.53;2.90;;;4.90;99.20;;;3.35;100.00;100531.00;4971619;28;20829;-75
2022/12/30 07:42:58;;;;;;;7.40;3.50;;;6.30;99.60;;;3.27;100.00;100532.69;4984796;28;20096;-76
2022/12/30 07:45:25;;;;;;;3.08;2.45;;;4.90;99.30;;;3.24;100.00;100524.88;4969458;28;20128;-76
2022/12/30 07:47:53;;;;;;;5.25;3.10;;;4.90;99.60;;;3.27;100.00;100522.28;4985961;28;20061;-76
2022/12/30 07:50:22;;;;;;;4.75;2.75;;;4.90;99.40;;;3.33;100.00;100514.53;4969990;28;20065;-76
2022/12/30 07:52:49;;;;;;;5.70;2.42;;;4.90;99.40;;;3.44;100.00;100512.03;4985460;28;20058;-76
2022/12/30 07:55:16;;;;;;;8.05;3.10;;;5.00;99.40;;;3.43;100.00;100507.66;4986309;28;20165;-75
2022/12/30 07:57:45;;;;;;;4.03;2.40;;;5.00;99.20;;;3.49;100.00;100509.44;4976042;28;20156;-76
2022/12/30 08:00:13;;;;;;;6.38;2.33;;;5.00;99.00;;;3.41;100.00;100509.38;4965328;28;20043;-76
2022/12/30 08:02:40;;;;;;;6.15;3.20;;;5.10;98.90;;;3.53;100.00;100506.03;4973671;28;20043;-75
2022/12/30 08:05:09;;;;;;;5.95;3.28;;;5.00;99.30;;;3.55;100.00;100518.16;4965161;28;20082;-76
2022/12/30 08:07:36;;;;;;;4.53;3.05;;;5.00;99.20;;;3.41;100.00;100511.97;4983708;28;20140;-74
2022/12/30 08:10:04;;;;;;;5.90;3.25;;;5.00;99.10;;;3.55;100.00;100509.50;4998846;28;20065;-74
2022/12/30 08:12:33;;;;;;;6.65;3.70;;;5.00;99.20;;;3.63;100.00;100504.34;4985592;28;20600;-74
2022/12/30 08:15:01;;;;;;;7.10;3.67;;;5.10;99.10;;;3.59;100.00;100492.16;4981505;28;20121;-73
2022/12/30 08:17:28;;;;;;;4.43;3.15;;;5.00;99.10;;;3.55;100.00;100489.53;4984148;28;20097;-73
2022/12/30 08:19:56;;;;;;;6.38;4.80;;;5.10;99.20;;;3.65;100.00;100482.66;4990075;28;20038;-74
2022/12/30 08:22:23;;;;;;;8.10;4.30;;;5.20;99.10;;;3.79;100.00;100480.16;4990875;28;20050;-73
2022/12/30 08:24:50;;;;;;;7.63;3.97;;;5.20;99.00;;;3.89;100.00;100480.19;4989654;28;20109;-73
2022/12/30 08:27:17;;;;;;;6.15;4.13;;;5.90;99.20;;;3.62;100.00;100467.03;4988623;28;20074;-74
2022/12/30 08:29:44;;;;;;;4.07;3.20;;;5.30;99.20;;;3.78;100.00;100472.34;4972558;28;20101;-74
2022/12/30 08:32:11;;;;;;;5.28;3.03;;;5.30;99.10;;;3.81;100.00;100462.81;4988602;28;20142;-73
2022/12/30 08:34:39;;;;;;;4.95;3.50;;;5.30;99.00;;;3.90;100.00;100463.72;4986706;28;20058;-74
2022/12/30 08:37:06;;;;;;;4.88;3.33;;;5.40;99.10;;;3.85;100.00;100458.50;4964845;28;20050;-72
2022/12/30 08:39:34;;;;;;;3.22;2.92;;;5.70;99.00;;;3.87;100.00;100453.28;4987399;28;20915;-73
2022/12/30 08:42:01;;;;;;;4.97;3.05;;;5.40;99.00;;;3.99;100.00;100450.75;5000645;28;20667;-73
2022/12/30 08:44:28;;;;;;;6.32;2.92;;;5.40;99.00;;;4.18;100.00;100450.81;4987358;28;20158;-73
2022/12/30 08:46:55;;;;;;;5.05;3.50;;;5.50;99.00;;;4.17;100.00;100449.06;4993556;28;20097;-73
2022/12/30 08:49:22;;;;;;;4.30;3.20;;;5.60;99.10;;;4.11;100.00;100452.53;4985293;28;20693;-73
2022/12/30 08:51:50;;;;;;;8.00;4.45;;;5.60;99.20;;;4.26;100.00;100438.69;4988753;28;20789;-73
2022/12/30 08:54:17;;;;;;;10.32;5.35;;;5.70;99.10;;;4.39;100.00;100439.59;4987316;28;20057;-72
2022/12/30 08:56:48;;;;;;;12.35;6.28;;;6.60;99.20;;;4.37;100.00;100430.91;4987334;28;20046;-73
2022/12/30 08:59:16;;;;;;;10.48;6.05;;;5.80;99.10;;;4.35;100.00;100437.84;4993103;28;20391;-73
2022/12/30 09:01:44;;;;;;;9.90;5.10;;;5.80;99.20;;;4.48;100.00;100434.41;5003341;28;20054;-73
2022/12/30 09:04:11;;;;;;;11.18;5.60;;;5.90;99.10;;;4.53;100.00;100431.84;4990128;28;20177;-74
2022/12/30 09:06:42;;;;;;;10.10;5.07;;;5.90;99.20;;;4.58;100.00;100424.88;4989644;28;20045;-73
2022/12/30 09:09:11;;;;;;;;;;;6.00;98.90;;;4.65;100.00;100426.63;4986723;28;20146;-72
2022/12/30 09:11:41;;;;;;;8.80;4.70;;;6.00;98.90;;;4.76;100.00;100428.38;5002490;28;19926;-72
2022/12/30 09:14:10;;;;;;;5.47;3.33;;;6.10;98.90;;;4.92;100.00;100434.47;4976027;28;20465;-72
2022/12/30 09:16:37;;;;;;;8.93;6.85;;;6.20;99.50;;;5.03;100.00;100435.31;4962711;28;20046;-73
2022/12/30 09:19:05;;;;;;;7.38;5.68;;;6.30;99.60;;;5.13;100.00;100435.34;5005633;28;20058;-71
2022/12/30 09:21:32;;;;;;;7.10;5.55;;;6.70;99.40;;;5.23;100.00;100426.66;5005835;28;20518;-73
2022/12/30 09:24:00;;;;;;;6.90;4.57;;;6.40;99.40;;;5.30;100.00;100428.38;5005413;28;20125;-73
2022/12/30 09:26:28;;;;;;;4.88;3.42;;;6.50;99.10;;;5.33;100.00;100417.91;4989098;28;20935;-73
2022/12/30 09:28:56;;;;;;;5.57;3.20;;;6.60;99.20;;;5.37;100.00;100408.34;5023469;28;20049;-73
2022/12/30 09:31:23;;;;;;;3.92;3.38;;;6.60;99.30;;;5.44;100.00;100393.56;4974320;28;20062;-72
2022/12/30 09:33:50;;;;;;;4.50;3.70;;;6.70;99.00;;;5.46;100.00;100386.59;4971515;28;20062;-71
2022/12/30 09:36:18;;;;;;;5.40;4.43;;;6.80;99.10;;;5.56;100.00;100397.88;4987172;28;20046;-71
2022/12/30 09:38:46;;;;;;;7.95;3.55;;;8.20;99.40;;;5.65;100.00;100397.84;4971474;28;20133;-72
2022/12/30 09:43:14;;;;;;;4.88;3.63;;;7.00;99.20;;;5.76;100.00;100390.81;4987404;28;20045;-71
2022/12/30 09:44:51;;;;;;;6.43;3.63;;;6.90;99.30;;;5.85;100.00;100379.47;4986839;28;20193;-72
2022/12/30 09:47:42;;;;;;;3.50;3.20;;;7.10;99.20;;;5.96;100.00;100369.84;4968791;28;20438;-72
2022/12/30 09:50:21;;;;;;;3.70;3.33;;;7.10;98.80;;;6.05;100.00;100365.50;4975811;28;20046;-72
2022/12/30 09:53:05;;;;;;;37.50;21.25;;;7.20;98.90;;;6.16;100.00;100363.69;4987753;28;20054;-72
2022/12/30 09:55:56;;;;;;;30.48;16.08;;;7.30;99.00;;;6.26;100.00;100358.41;4972434;28;20057;-71
2022/12/30 09:58:28;;;;;;;;;;;7.40;98.70;;;6.35;100.00;100350.53;4999872;28;20074;-72
2022/12/30 10:01:22;;;;;;;8.75;6.80;;;7.50;98.80;;;6.49;100.00;100353.91;4983890;28;19926;-72
2022/12/30 10:03:57;;;;;;;6.57;5.50;;;7.60;98.70;;;6.65;100.00;100344.19;4967606;28;20043;-71
2022/12/30 10:06:38;;;;;;;7.28;5.68;;;7.70;98.70;;;6.76;100.00;100344.09;4952491;28;20093;-70
2022/12/30 10:09:36;;;;;;;5.70;4.40;;;7.80;98.60;;;6.83;100.00;100337.06;4972769;28;20387;-74
2022/12/30 10:12:35;;;;;;;8.10;3.53;;;7.90;98.50;;;6.96;100.00;100340.44;4984152;28;20042;-74
2022/12/30 10:16:01;;;;;;;5.03;4.13;;;8.00;98.50;;;7.11;100.00;100334.19;4971876;28;20051;-72
2022/12/30 10:18:58;;;;;;;6.25;3.97;;;8.10;98.20;;;7.30;100.00;100319.16;4986911;28;20052;-75
2022/12/30 10:22:06;;;;;;;4.43;3.45;;;8.30;98.30;;;7.49;100.00;100318.94;4975670;28;20144;-74
2022/12/30 10:25:15;;;;;;;4.22;3.15;;;8.50;98.20;;;7.59;100.00;100302.22;4972281;28;20108;-74
2022/12/30 10:27:49;;;;;;;3.93;2.53;;;8.60;98.00;;;7.73;100.00;100291.56;4992881;28;20050;-76
2022/12/30 10:30:21;;;;;;;3.05;2.53;;;8.70;97.90;;;7.84;100.00;100286.16;4987373;28;20085;-74
2022/12/30 10:33:01;;;;;;;3.58;2.95;;;8.80;97.70;;;7.93;100.00;100291.28;4987564;28;20164;-78
2022/12/30 10:35:32;;;;;;;4.22;2.80;;;8.90;97.70;;;8.04;100.00;100292.88;4986537;28;20653;-74
2022/12/30 10:38:25;;;;;;;5.28;3.35;;;9.60;97.70;;;8.17;100.00;100286.56;4984591;28;20066;-68
2022/12/30 10:41:28;;;;;;;4.97;3.67;;;9.10;97.50;;;8.24;100.00;100289.94;4982410;28;20132;-74
2022/12/30 10:44:29;;;;;;;3.20;2.70;;;9.20;97.40;;;8.28;100.00;100291.66;4993186;28;20066;-73
2022/12/30 10:47:01;;;;;;;4.00;3.40;;;9.40;97.00;;;8.37;100.00;100283.63;4998436;28;20125;-73
2022/12/30 10:50:20;;;;;;;2.83;2.33;;;9.40;97.00;;;8.44;100.00;100271.28;4981158;28;20519;-73
2022/12/30 10:52:48;;;;;;;3.47;2.70;;;9.50;96.80;;;8.52;100.00;100268.56;4998520;28;20046;-74
2022/12/30 10:55:31;;;;;;;5.07;4.57;;;9.70;97.10;;;8.58;100.00;100267.59;4985877;28;20043;-74
2022/12/30 10:58:26;;;;;;;2.65;2.45;;;10.80;97.20;;;8.72;100.00;100260.34;4965233;28;20046;-73
2022/12/30 11:00:53;;;;;;;4.65;3.47;;;9.70;96.70;;;8.79;100.00;100254.09;4983208;28;22265;-71
2022/12/30 11:03:29;;;;;;;11.88;6.78;;;9.80;96.60;;;8.84;100.00;100269.75;4982431;28;20046;-70
2022/12/30 11:06:13;;;;;;;6.63;3.10;;;9.80;96.50;;;8.94;100.00;100265.19;4983669;28;20541;-71
2022/12/30 11:08:41;;;;;;;5.65;2.50;;;10.00;96.50;;;8.98;100.00;100261.63;4980814;28;20046;-70
2022/12/30 11:11:09;;;;;;;2.63;2.42;;;10.10;96.20;;;9.13;100.00;100255.22;4983707;28;20677;-69
2022/12/30 11:16:32;;;;;;;3.30;2.10;;;10.20;95.90;;;9.30;100.00;100248.75;4983295;28;20581;-69
2022/12/30 11:19:03;;;;;;;55.63;38.42;;;10.40;95.60;;;9.33;100.00;100233.81;4969596;28;20078;-68
2022/12/30 11:21:38;;;;;;;6.75;5.38;;;10.40;95.50;;;9.47;100.00;100230.03;4992522;28;20108;-68
2022/12/30 11:24:16;;;;;;;4.18;3.40;;;10.60;95.80;;;9.51;100.00;100226.44;4969625;28;20042;-69
2022/12/30 11:26:48;;;;;;;4.72;4.20;;;10.60;95.50;;;9.58;100.00;100217.50;4968965;28;20093;-69
2022/12/30 11:29:21;;;;;;;3.60;3.10;;;10.70;95.30;;;9.54;100.00;100207.97;4977280;28;20054;-69
2022/12/30 11:31:53;;;;;;;2.88;2.00;;;10.70;95.00;;;9.60;100.00;100205.22;4960685;28;20053;-69
2022/12/30 11:34:33;;;;;;;2.83;2.10;;;9.60;95.20;;;9.63;100.00;100191.13;4973519;28;20122;-70
2022/12/30 11:37:36;;;;;;;2.88;2.00;;;10.70;95.60;;;9.59;100.00;100187.72;4973022;28;20050;-70
2022/12/30 11:40:36;;;;;;;2.75;1.63;;;10.80;95.20;;;9.59;100.00;100173.72;4958881;28;20046;-71